Time;durP1;ratioP1;P1;durP2;ratioP2;P2;SDS_P1;SDS_P2;PMS_P1;PMS_P2;Temp;Humidity;BMP_temperature;BMP_pressure;BME280_temperature;BME280_humidity;BME280_pressure;Samples;Min_cycle;Max_cycle;Signal;HPM_P1;HPM_P2
2024/01/06 00:01:12;;;;;;;4.53;2.47;;;5.50;99.90;;;;;;5083314;28;20568;-74
2024/01/06 00:03:37;;;;;;;2.47;2.00;;;5.50;99.90;;;;;;5066281;28;20226;-73
2024/01/06 00:06:03;;;;;;;3.07;1.70;;;5.50;99.90;;;;;;5064364;28;20446;-74
2024/01/06 00:08:29;;;;;;;7.27;2.47;;;5.60;99.90;;;;;;5065765;28;20281;-74
2024/01/06 00:10:55;;;;;;;4.70;2.03;;;5.60;99.90;;;;;;5064064;28;20702;-74
2024/01/06 00:13:20;;;;;;;3.43;2.37;;;5.60;99.90;;;;;;5043143;28;20241;-74
2024/01/06 00:15:46;;;;;;;2.47;1.97;;;5.60;99.90;;;;;;5061784;28;20212;-74
2024/01/06 00:18:12;;;;;;;1.77;1.57;;;5.60;99.90;;;;;;5060172;28;20218;-74
2024/01/06 00:20:38;;;;;;;3.37;1.80;;;5.70;99.90;;;;;;5060272;28;20228;-73
2024/01/06 00:23:03;;;;;;;4.07;1.70;;;5.70;99.90;;;;;;5075211;28;20235;-74
2024/01/06 00:25:29;;;;;;;2.73;1.73;;;5.70;99.90;;;;;;5063162;28;20232;-73
2024/01/06 00:27:55;;;;;;;4.00;2.13;;;5.70;99.90;;;;;;5045515;28;20231;-73
2024/01/06 00:30:20;;;;;;;4.93;2.00;;;5.70;99.90;;;;;;5059769;28;20232;-75
2024/01/06 00:32:46;;;;;;;5.53;2.30;;;5.70;99.90;;;;;;5054781;28;20230;-74
2024/01/06 00:35:11;;;;;;;4.50;3.30;;;5.70;99.90;;;;;;5058219;28;20298;-74
2024/01/06 00:37:37;;;;;;;3.50;2.30;;;5.70;99.90;;;;;;5058782;28;20227;-74
2024/01/06 00:40:04;;;;;;;4.10;2.57;;;5.70;99.90;;;;;;5042439;28;20246;-74
2024/01/06 00:42:30;;;;;;;2.63;2.33;;;5.70;99.90;;;;;;5063035;28;20234;-74
2024/01/06 00:44:55;;;;;;;4.47;3.23;;;5.70;99.90;;;;;;5044784;28;20537;-74
2024/01/06 00:47:23;;;;;;;5.50;3.37;;;5.70;99.90;;;;;;5068399;28;20258;-75
2024/01/06 00:49:49;;;;;;;3.40;3.03;;;5.70;99.90;;;;;;5062289;28;20228;-74
2024/01/06 00:52:15;;;;;;;4.93;3.00;;;5.70;99.90;;;;;;5058334;28;20907;-74
2024/01/06 00:54:41;;;;;;;3.00;2.13;;;5.70;99.90;;;;;;5060213;28;20701;-73
2024/01/06 00:57:07;;;;;;;2.40;2.03;;;5.70;99.90;;;;;;5059483;28;20737;-74
2024/01/06 00:59:32;;;;;;;3.97;2.30;;;5.70;99.90;;;;;;5061349;28;20227;-74
2024/01/06 01:01:58;;;;;;;3.00;2.37;;;5.70;99.90;;;;;;5058454;28;20262;-74
2024/01/06 01:04:24;;;;;;;4.80;2.17;;;5.70;99.90;;;;;;5061674;28;20230;-74
2024/01/06 01:06:49;;;;;;;8.83;2.50;;;5.70;99.90;;;;;;5062633;28;20682;-74
2024/01/06 01:09:15;;;;;;;1.80;1.60;;;5.60;99.90;;;;;;5064029;28;20234;-74
2024/01/06 01:11:41;;;;;;;4.17;2.37;;;5.60;99.90;;;;;;5085433;28;20220;-74
2024/01/06 01:14:07;;;;;;;2.67;1.93;;;5.70;99.90;;;;;;5056302;28;20216;-74
2024/01/06 01:16:33;;;;;;;2.50;1.97;;;5.70;99.90;;;;;;5063586;28;20468;-74
2024/01/06 01:18:58;;;;;;;2.17;1.40;;;5.70;99.90;;;;;;5062201;28;20694;-74
2024/01/06 01:21:24;;;;;;;3.30;2.30;;;5.70;99.90;;;;;;5066376;28;20246;-74
2024/01/06 01:23:50;;;;;;;2.77;1.23;;;5.70;99.90;;;;;;5062795;28;20612;-74
2024/01/06 01:26:15;;;;;;;3.73;1.90;;;5.70;99.90;;;;;;5045494;28;20293;-74
2024/01/06 01:28:42;;;;;;;2.07;1.90;;;5.70;99.90;;;;;;5065378;28;20693;-74
2024/01/06 01:31:08;;;;;;;2.10;1.83;;;5.70;99.90;;;;;;5044369;28;20220;-74
2024/01/06 01:33:33;;;;;;;2.83;1.40;;;5.70;99.90;;;;;;5062976;28;20466;-74
2024/01/06 01:36:02;;;;;;;4.80;1.93;;;5.80;99.90;;;;;;5051979;28;20232;-74
2024/01/06 01:38:28;;;;;;;1.63;1.40;;;5.80;99.90;;;;;;5065410;28;20244;-75
2024/01/06 01:40:53;;;;;;;3.80;1.83;;;5.80;99.90;;;;;;5047514;28;20484;-74
2024/01/06 01:43:19;;;;;;;6.33;1.53;;;5.80;99.90;;;;;;5053445;28;20582;-75
2024/01/06 01:45:51;;;;;;;1.37;1.27;;;5.80;99.90;;;;;;5062932;28;20251;-74
2024/01/06 01:48:18;;;;;;;4.77;2.00;;;5.80;99.90;;;;;;5063538;28;22468;-74
2024/01/06 01:50:44;;;;;;;2.03;1.40;;;5.70;99.90;;;;;;5080856;28;20983;-74
2024/01/06 01:53:10;;;;;;;1.50;1.40;;;5.80;99.90;;;;;;5061696;28;20466;-74
2024/01/06 01:55:36;;;;;;;4.07;1.50;;;5.70;99.90;;;;;;5063793;28;20219;-74
2024/01/06 01:58:02;;;;;;;1.73;1.63;;;5.70;99.90;;;;;;5061360;28;20529;-74
2024/01/06 02:00:28;;;;;;;3.90;1.50;;;5.80;99.90;;;;;;5064211;28;20224;-75
2024/01/06 02:02:53;;;;;;;2.80;1.60;;;5.80;99.90;;;;;;5046403;28;20474;-74
2024/01/06 02:05:19;;;;;;;2.83;1.57;;;5.80;99.90;;;;;;5045533;28;20216;-75
2024/01/06 02:07:45;;;;;;;2.20;1.60;;;5.80;99.90;;;;;;5063877;28;20230;-74
2024/01/06 02:10:11;;;;;;;2.90;1.20;;;5.70;99.90;;;;;;5063233;28;20216;-75
2024/01/06 02:12:36;;;;;;;2.60;1.57;;;5.70;99.90;;;;;;5079975;28;20458;-73
2024/01/06 02:15:02;;;;;;;2.70;1.50;;;5.70;99.90;;;;;;5043550;28;20227;-74
2024/01/06 02:17:28;;;;;;;1.40;1.30;;;5.70;99.90;;;;;;5064716;28;20230;-74
2024/01/06 02:19:53;;;;;;;4.40;1.47;;;5.70;99.90;;;;;;5059361;28;20258;-74
2024/01/06 02:22:19;;;;;;;2.60;1.87;;;5.70;99.90;;;;;;5061295;28;20223;-74
2024/01/06 02:24:45;;;;;;;1.60;1.50;;;5.60;99.90;;;;;;5063166;28;20380;-73
2024/01/06 02:27:10;;;;;;;3.97;1.53;;;5.60;99.90;;;;;;5061233;28;20269;-74
2024/01/06 02:29:36;;;;;;;3.80;1.80;;;5.60;99.90;;;;;;5064943;28;20641;-74
2024/01/06 02:32:01;;;;;;;3.30;1.50;;;5.70;99.90;;;;;;5054848;28;20237;-74
2024/01/06 02:34:27;;;;;;;3.23;1.80;;;5.70;99.90;;;;;;5064714;28;20224;-74
2024/01/06 02:36:53;;;;;;;3.60;1.80;;;5.70;99.90;;;;;;5064661;28;20690;-74
2024/01/06 02:39:19;;;;;;;3.10;2.00;;;5.70;99.90;;;;;;5059695;28;20243;-75
2024/01/06 02:41:44;;;;;;;1.63;1.37;;;5.70;99.90;;;;;;5058470;28;20314;-74
2024/01/06 02:44:10;;;;;;;1.37;1.00;;;5.70;99.90;;;;;;5060478;28;20246;-74
2024/01/06 02:46:35;;;;;;;1.77;1.50;;;5.70;99.90;;;;;;5063727;28;20212;-74
2024/01/06 02:49:01;;;;;;;5.47;1.83;;;5.70;99.90;;;;;;5043433;28;20796;-74
2024/01/06 02:51:27;;;;;;;3.07;1.70;;;5.70;99.90;;;;;;5063906;28;20279;-74
2024/01/06 02:53:53;;;;;;;2.50;1.40;;;5.70;99.90;;;;;;5062535;28;20709;-74
2024/01/06 02:56:18;;;;;;;1.60;1.50;;;5.80;99.90;;;;;;5059107;28;20281;-73
2024/01/06 02:58:44;;;;;;;5.13;1.23;;;5.70;99.90;;;;;;5061263;28;20266;-73
2024/01/06 03:01:11;;;;;;;1.37;1.27;;;5.70;99.90;;;;;;5043856;28;20227;-74
2024/01/06 03:03:37;;;;;;;1.83;1.30;;;5.70;99.90;;;;;;5062305;28;20220;-73
2024/01/06 03:06:05;;;;;;;4.97;1.40;;;5.70;99.90;;;;;;5059964;28;20531;-74
2024/01/06 03:08:31;;;;;;;1.27;1.17;;;5.70;99.90;;;;;;5063438;28;20844;-74
2024/01/06 03:10:57;;;;;;;0.90;0.90;;;5.70;99.90;;;;;;5079028;28;20469;-74
2024/01/06 03:13:22;;;;;;;2.73;1.73;;;5.70;99.90;;;;;;5057332;28;20220;-74
2024/01/06 03:15:48;;;;;;;3.40;1.37;;;5.80;99.90;;;;;;5062810;28;20220;-73
2024/01/06 03:18:14;;;;;;;5.33;1.80;;;5.70;99.90;;;;;;5060269;28;20212;-74
2024/01/06 03:20:39;;;;;;;4.30;1.60;;;5.60;99.90;;;;;;5056487;28;20220;-73
2024/01/06 03:23:05;;;;;;;1.40;1.30;;;5.60;99.90;;;;;;5074769;28;20212;-74
2024/01/06 03:25:31;;;;;;;3.67;1.60;;;5.60;99.90;;;;;;5062735;28;20220;-74
2024/01/06 03:27:56;;;;;;;9.43;1.37;;;5.60;99.90;;;;;;5062815;28;20219;-73
2024/01/06 03:30:22;;;;;;;1.50;1.20;;;5.60;99.90;;;;;;5043089;28;20223;-74
2024/01/06 03:32:47;;;;;;;5.50;1.93;;;5.60;99.90;;;;;;5075917;28;20220;-73
2024/01/06 03:35:13;;;;;;;3.00;1.20;;;5.50;99.90;;;;;;5056052;28;20209;-73
2024/01/06 03:37:39;;;;;;;1.63;0.93;;;5.50;99.90;;;;;;5063740;28;20223;-74
2024/01/06 03:40:06;;;;;;;1.90;1.50;;;5.60;99.90;;;;;;5051033;28;20283;-74
2024/01/06 03:42:32;;;;;;;2.27;1.40;;;5.50;99.90;;;;;;5046228;28;20477;-74
2024/01/06 03:44:57;;;;;;;3.00;2.10;;;5.40;99.90;;;;;;5046484;28;20461;-74
2024/01/06 03:47:23;;;;;;;1.30;1.20;;;5.40;99.90;;;;;;5070070;28;20231;-74
2024/01/06 03:49:49;;;;;;;2.50;1.50;;;5.50;99.90;;;;;;5070176;28;20231;-73
2024/01/06 03:52:14;;;;;;;1.37;1.07;;;5.50;99.90;;;;;;5077048;28;20272;-74
2024/01/06 03:54:40;;;;;;;2.53;1.90;;;5.50;99.90;;;;;;5060594;28;20231;-74
2024/01/06 03:57:06;;;;;;;1.87;1.67;;;5.40;99.90;;;;;;5067798;28;20219;-73
2024/01/06 03:59:31;;;;;;;1.80;1.47;;;5.40;99.90;;;;;;5062479;28;20216;-73
2024/01/06 04:01:57;;;;;;;2.10;1.70;;;5.50;99.90;;;;;;5053860;28;20239;-74
2024/01/06 04:04:22;;;;;;;4.37;1.57;;;5.50;99.90;;;;;;5052828;28;20227;-74
2024/01/06 04:06:48;;;;;;;1.40;1.30;;;5.60;99.90;;;;;;5059936;28;20220;-74
2024/01/06 04:09:14;;;;;;;4.30;2.10;;;5.60;99.90;;;;;;5066320;28;20216;-74
2024/01/06 04:11:39;;;;;;;1.30;1.20;;;5.60;99.90;;;;;;5065671;28;20251;-73
2024/01/06 04:14:05;;;;;;;5.17;1.80;;;5.60;99.90;;;;;;5055853;28;20222;-74
2024/01/06 04:16:31;;;;;;;1.60;1.50;;;5.70;99.90;;;;;;5079899;28;20242;-75
2024/01/06 04:18:56;;;;;;;1.70;1.30;;;5.60;99.90;;;;;;5060994;28;20246;-73
2024/01/06 04:21:22;;;;;;;6.33;1.93;;;5.70;99.90;;;;;;5060208;28;20235;-74
2024/01/06 04:23:48;;;;;;;2.63;1.47;;;5.60;99.90;;;;;;5076467;28;20239;-74
2024/01/06 04:26:13;;;;;;;3.30;2.10;;;5.60;99.90;;;;;;5063911;28;20222;-74
2024/01/06 04:28:39;;;;;;;1.50;1.40;;;5.60;99.90;;;;;;5062442;28;20366;-74
2024/01/06 04:31:04;;;;;;;2.17;1.87;;;5.50;99.90;;;;;;5063480;28;20223;-74
2024/01/06 04:33:31;;;;;;;2.43;1.57;;;5.50;99.90;;;;;;5061424;28;20220;-74
2024/01/06 04:35:57;;;;;;;2.83;2.00;;;5.60;99.90;;;;;;5044696;28;20211;-74
2024/01/06 04:38:23;;;;;;;5.60;1.93;;;5.50;99.90;;;;;;5059995;28;20632;-74
2024/01/06 04:40:49;;;;;;;2.20;2.00;;;5.60;99.90;;;;;;5060804;28;20541;-74
2024/01/06 04:43:14;;;;;;;2.50;1.83;;;5.60;99.90;;;;;;5058186;28;20212;-74
2024/01/06 04:45:40;;;;;;;3.63;1.90;;;5.60;99.90;;;;;;5054390;28;20835;-74
2024/01/06 04:48:06;;;;;;;3.20;2.10;;;5.60;99.90;;;;;;5046728;28;20641;-74
2024/01/06 04:50:32;;;;;;;2.17;1.40;;;5.60;99.90;;;;;;5070143;28;20312;-74
2024/01/06 04:52:58;;;;;;;4.70;1.90;;;5.60;99.90;;;;;;5066519;28;20506;-74
2024/01/06 04:55:23;;;;;;;3.30;1.73;;;5.60;99.90;;;;;;5065026;28;20308;-74
2024/01/06 04:57:49;;;;;;;2.80;1.60;;;5.60;99.90;;;;;;5047182;28;20694;-73
2024/01/06 05:00:15;;;;;;;2.17;1.57;;;5.50;99.90;;;;;;5061065;28;20703;-74
2024/01/06 05:02:41;;;;;;;3.20;1.80;;;5.50;99.90;;;;;;5050584;28;20552;-73
2024/01/06 05:05:07;;;;;;;2.20;1.80;;;5.50;99.90;;;;;;5062725;28;20212;-74
2024/01/06 05:07:32;;;;;;;4.23;1.60;;;5.50;99.90;;;;;;5082511;28;20245;-74
2024/01/06 05:09:58;;;;;;;3.40;1.80;;;5.50;99.90;;;;;;5049729;28;20578;-74
2024/01/06 05:12:23;;;;;;;3.73;1.57;;;5.50;99.90;;;;;;5057083;28;20629;-74
2024/01/06 05:14:49;;;;;;;1.53;1.43;;;5.50;99.90;;;;;;5058941;28;20310;-73
2024/01/06 05:17:15;;;;;;;1.70;1.60;;;5.50;99.90;;;;;;5046240;28;20240;-74
2024/01/06 05:19:40;;;;;;;3.50;1.43;;;5.50;99.90;;;;;;5037671;28;20228;-74
2024/01/06 05:22:06;;;;;;;3.43;1.90;;;5.50;99.90;;;;;;5061197;28;20223;-74
2024/01/06 05:24:32;;;;;;;2.70;2.07;;;5.50;99.90;;;;;;5066469;28;20598;-75
2024/01/06 05:26:58;;;;;;;2.93;1.83;;;5.50;99.90;;;;;;5063104;28;20228;-74
2024/01/06 05:29:25;;;;;;;1.70;1.60;;;5.50;99.90;;;;;;5064774;28;20227;-74
2024/01/06 05:31:51;;;;;;;3.17;2.10;;;5.50;99.90;;;;;;5059136;28;20250;-74
2024/01/06 05:34:17;;;;;;;1.50;1.33;;;5.60;99.90;;;;;;5063905;28;20458;-74
2024/01/06 05:36:42;;;;;;;2.47;2.00;;;5.60;99.90;;;;;;5050326;28;20228;-74
2024/01/06 05:39:08;;;;;;;2.13;1.70;;;5.50;99.90;;;;;;5046160;28;20294;-74
2024/01/06 05:41:41;;;;;;;3.20;1.83;;;5.50;99.90;;;;;;5055845;28;20235;-74
2024/01/06 05:44:07;;;;;;;1.97;1.60;;;5.50;99.90;;;;;;5047796;28;20223;-74
2024/01/06 05:46:34;;;;;;;3.47;2.13;;;5.50;99.90;;;;;;5065361;28;20497;-75
2024/01/06 05:49:00;;;;;;;3.10;1.90;;;5.50;99.90;;;;;;5061734;28;20473;-74
2024/01/06 05:51:25;;;;;;;2.90;1.77;;;5.50;99.90;;;;;;5066962;28;20457;-74
2024/01/06 05:53:51;;;;;;;4.00;2.27;;;5.40;99.90;;;;;;5047399;28;20625;-73
2024/01/06 05:56:27;;;;;;;2.60;1.97;;;5.50;99.90;;;;;;5053162;28;20221;-74
2024/01/06 05:58:54;;;;;;;7.23;1.83;;;5.50;99.90;;;;;;5063986;28;20753;-74
2024/01/06 06:01:20;;;;;;;3.87;2.37;;;5.50;99.90;;;;;;5059533;28;20557;-75
2024/01/06 06:03:47;;;;;;;1.70;1.60;;;5.50;99.90;;;;;;5063957;28;20454;-73
2024/01/06 06:06:12;;;;;;;1.80;1.70;;;5.50;99.90;;;;;;5072191;28;20466;-74
2024/01/06 06:08:39;;;;;;;4.40;2.20;;;5.50;99.90;;;;;;5064113;28;20538;-75
2024/01/06 06:11:10;;;;;;;2.90;2.47;;;5.50;99.90;;;;;;5060834;28;20235;-74
2024/01/06 06:13:40;;;;;;;2.20;1.73;;;5.50;99.90;;;;;;5058223;28;20552;-75
2024/01/06 06:16:09;;;;;;;5.50;2.10;;;5.60;99.90;;;;;;5061161;28;20971;-74
2024/01/06 06:18:35;;;;;;;2.63;2.20;;;5.60;99.90;;;;;;5063639;28;20454;-74
2024/01/06 06:21:03;;;;;;;1.90;1.80;;;5.60;99.90;;;;;;5056380;28;20463;-74
2024/01/06 06:23:29;;;;;;;2.47;2.00;;;5.50;99.90;;;;;;5063844;28;20469;-74
2024/01/06 06:25:55;;;;;;;3.23;2.47;;;5.50;99.90;;;;;;5057825;28;20454;-74
2024/01/06 06:28:21;;;;;;;1.77;1.57;;;5.50;99.90;;;;;;5063620;28;20465;-74
2024/01/06 06:30:46;;;;;;;4.20;2.10;;;5.40;99.90;;;;;;5057329;28;20321;-73
2024/01/06 06:33:12;;;;;;;1.97;1.87;;;5.40;99.90;;;;;;5058063;28;20351;-74
2024/01/06 06:35:38;;;;;;;4.87;2.10;;;5.40;99.90;;;;;;5064119;28;20533;-74
2024/01/06 06:38:03;;;;;;;3.43;2.00;;;5.50;99.90;;;;;;5051266;28;20216;-74
2024/01/06 06:40:29;;;;;;;3.07;1.50;;;5.50;99.90;;;;;;5065193;28;20281;-73
2024/01/06 06:42:55;;;;;;;3.60;2.37;;;5.50;99.90;;;;;;5047600;28;20681;-74
2024/01/06 06:45:22;;;;;;;4.87;2.20;;;5.50;99.90;;;;;;5054190;28;20520;-74
2024/01/06 06:47:49;;;;;;;3.03;2.03;;;5.50;99.90;;;;;;5040922;28;20217;-73
2024/01/06 06:50:20;;;;;;;2.67;2.00;;;5.50;99.90;;;;;;5078006;28;20482;-75
2024/01/06 06:52:46;;;;;;;4.53;1.93;;;5.60;99.90;;;;;;5062249;28;20465;-74
2024/01/06 06:55:12;;;;;;;2.90;2.13;;;5.60;99.90;;;;;;5061276;28;20454;-74
2024/01/06 06:57:38;;;;;;;2.90;2.60;;;5.70;99.90;;;;;;5064008;28;20454;-74
2024/01/06 07:00:04;;;;;;;5.90;3.00;;;5.70;99.90;;;;;;5060349;28;20739;-74
2024/01/06 07:02:30;;;;;;;3.17;2.17;;;5.70;99.90;;;;;;5077866;28;20319;-74
2024/01/06 07:04:56;;;;;;;2.77;2.30;;;5.70;99.90;;;;;;5061130;28;20553;-74
2024/01/06 07:07:22;;;;;;;5.10;2.53;;;5.70;99.90;;;;;;5060722;28;20296;-74
2024/01/06 07:09:47;;;;;;;3.33;1.67;;;5.70;99.90;;;;;;5057156;28;20220;-74
2024/01/06 07:12:13;;;;;;;3.90;2.40;;;5.80;99.90;;;;;;5051033;28;20463;-74
2024/01/06 07:14:39;;;;;;;2.10;2.00;;;5.80;99.90;;;;;;5060884;28;20219;-74
2024/01/06 07:17:04;;;;;;;1.70;1.60;;;5.90;99.90;;;;;;5052535;28;20220;-74
2024/01/06 07:19:32;;;;;;;4.07;2.07;;;5.90;99.90;;;;;;5055707;28;20228;-74
2024/01/06 07:21:57;;;;;;;1.93;1.80;;;6.00;99.90;;;;;;5054462;28;20219;-74
2024/01/06 07:24:23;;;;;;;2.30;2.10;;;6.00;99.90;;;;;;5061074;28;20460;-74
2024/01/06 07:26:49;;;;;;;2.57;2.23;;;6.10;99.90;;;;;;5067480;28;20223;-74
2024/01/06 07:29:14;;;;;;;3.67;2.43;;;6.10;99.90;;;;;;5064167;28;20220;-74
2024/01/06 07:31:40;;;;;;;2.53;2.30;;;6.00;99.90;;;;;;5046280;28;20228;-71
2024/01/06 07:34:06;;;;;;;2.10;2.00;;;6.00;99.90;;;;;;5061409;28;20219;-74
2024/01/06 07:36:32;;;;;;;3.87;2.30;;;6.00;99.90;;;;;;5057827;28;20229;-74
2024/01/06 07:38:57;;;;;;;2.67;2.03;;;6.00;99.90;;;;;;5062660;28;20224;-73
2024/01/06 07:41:23;;;;;;;3.00;2.43;;;6.10;99.90;;;;;;5055359;28;20492;-75
2024/01/06 07:43:49;;;;;;;2.67;2.10;;;6.00;99.90;;;;;;5055487;28;20222;-73
2024/01/06 07:46:16;;;;;;;2.80;2.30;;;6.00;99.90;;;;;;5050956;28;20288;-74
2024/01/06 07:48:42;;;;;;;3.33;2.33;;;6.00;99.90;;;;;;5059828;28;20472;-74
2024/01/06 07:51:07;;;;;;;4.80;2.40;;;6.00;99.90;;;;;;5074372;28;20451;-74
2024/01/06 07:53:33;;;;;;;3.30;2.13;;;6.10;99.90;;;;;;5057974;28;20226;-75
2024/01/06 07:55:59;;;;;;;3.00;2.40;;;6.10;99.90;;;;;;5044759;28;20222;-74
2024/01/06 07:58:24;;;;;;;2.60;2.30;;;6.10;99.90;;;;;;5053078;28;20220;-75
2024/01/06 08:00:50;;;;;;;3.33;2.97;;;6.10;99.90;;;;;;5062340;28;20592;-74
2024/01/06 08:03:16;;;;;;;3.30;2.67;;;6.00;99.90;;;;;;5068137;28;20226;-75
2024/01/06 08:05:42;;;;;;;3.27;2.40;;;6.00;99.90;;;;;;5058485;28;20219;-74
2024/01/06 08:08:07;;;;;;;4.07;3.33;;;6.00;99.90;;;;;;5057511;28;20639;-74
2024/01/06 08:10:33;;;;;;;6.00;2.73;;;6.00;99.90;;;;;;5060163;28;20588;-74
2024/01/06 08:12:59;;;;;;;7.63;3.93;;;6.00;99.90;;;;;;5061365;28;20215;-74
2024/01/06 08:15:24;;;;;;;6.77;3.30;;;6.00;99.90;;;;;;5056504;28;20314;-74
2024/01/06 08:17:50;;;;;;;5.03;2.97;;;6.10;99.90;;;;;;5063528;28;20211;-73
2024/01/06 08:20:16;;;;;;;5.00;3.20;;;6.10;99.90;;;;;;5067384;28;20269;-74
2024/01/06 08:22:41;;;;;;;6.40;2.77;;;6.10;99.90;;;;;;5059664;28;20238;-72
2024/01/06 08:25:07;;;;;;;3.60;2.33;;;6.10;99.90;;;;;;5060089;28;20293;-74
2024/01/06 08:27:33;;;;;;;6.87;2.83;;;6.10;99.90;;;;;;5057073;28;20706;-74
2024/01/06 08:30:00;;;;;;;8.00;3.00;;;6.10;99.90;;;;;;5062142;28;20725;-74
2024/01/06 08:32:26;;;;;;;5.83;3.20;;;6.10;99.90;;;;;;5034380;28;20462;-74
2024/01/06 08:34:52;;;;;;;2.63;2.43;;;6.10;99.90;;;;;;5041274;28;20458;-74
2024/01/06 08:37:17;;;;;;;3.90;2.90;;;6.00;99.90;;;;;;5038106;28;20220;-74
2024/01/06 08:39:43;;;;;;;3.20;2.17;;;6.00;99.90;;;;;;5042256;28;20232;-74
2024/01/06 08:42:09;;;;;;;3.30;3.00;;;6.10;99.90;;;;;;5054834;28;20286;-74
2024/01/06 08:44:34;;;;;;;3.73;3.30;;;6.10;99.90;;;;;;5049488;28;20239;-74
2024/01/06 08:47:00;;;;;;;3.10;2.80;;;6.10;99.90;;;;;;5055304;28;20658;-74
2024/01/06 08:49:25;;;;;;;5.00;3.33;;;6.10;99.90;;;;;;5065419;28;20231;-74
2024/01/06 08:51:51;;;;;;;5.37;3.37;;;6.10;99.90;;;;;;5068713;28;20220;-74
2024/01/06 08:54:17;;;;;;;7.20;4.40;;;6.10;99.90;;;;;;5066090;28;20273;-75
2024/01/06 08:56:43;;;;;;;10.23;3.73;;;6.10;99.90;;;;;;5065963;28;20216;-73
2024/01/06 08:59:09;;;;;;;4.53;3.57;;;6.10;99.90;;;;;;5065523;28;20216;-74
2024/01/06 09:01:36;;;;;;;3.97;3.37;;;6.10;99.90;;;;;;5066007;28;20236;-75
2024/01/06 09:04:02;;;;;;;4.60;2.30;;;6.10;99.90;;;;;;5065039;28;20862;-75
2024/01/06 09:06:28;;;;;;;6.50;3.53;;;6.20;99.90;;;;;;5064289;28;20459;-73
2024/01/06 09:08:54;;;;;;;3.33;3.03;;;6.20;99.90;;;;;;5066558;28;20476;-73
2024/01/06 09:11:19;;;;;;;4.40;2.47;;;6.20;99.90;;;;;;5061237;28;20232;-74
2024/01/06 09:13:45;;;;;;;2.70;2.50;;;6.20;99.90;;;;;;5066077;28;20215;-74
2024/01/06 09:16:11;;;;;;;4.10;2.93;;;6.30;99.90;;;;;;5065410;28;20204;-75
2024/01/06 09:18:36;;;;;;;3.53;3.23;;;6.20;99.90;;;;;;5055309;28;20291;-74
2024/01/06 09:21:03;;;;;;;3.40;2.83;;;6.20;99.90;;;;;;5062675;28;20587;-74
2024/01/06 09:23:29;;;;;;;5.03;3.30;;;6.10;99.90;;;;;;5060338;28;20220;-74
2024/01/06 09:25:54;;;;;;;3.57;3.23;;;6.10;99.90;;;;;;5062804;28;20847;-74
2024/01/06 09:28:21;;;;;;;4.40;3.40;;;6.10;99.90;;;;;;5069407;28;20240;-74
2024/01/06 09:30:47;;;;;;;5.23;3.10;;;6.10;99.90;;;;;;5074177;28;20238;-74
2024/01/06 09:33:15;;;;;;;5.77;3.10;;;6.10;99.90;;;;;;5069132;28;21236;-74
2024/01/06 09:35:42;;;;;;;4.97;3.60;;;6.10;99.90;;;;;;5067182;28;20236;-74
2024/01/06 09:38:07;;;;;;;4.33;3.10;;;6.10;99.90;;;;;;5065210;28;20990;-74
2024/01/06 09:40:35;;;;;;;3.00;2.43;;;6.10;99.90;;;;;;5075672;28;20454;-74
2024/01/06 09:43:01;;;;;;;5.00;3.30;;;6.20;99.90;;;;;;5066241;28;20251;-74
2024/01/06 09:45:28;;;;;;;5.63;2.87;;;6.20;99.90;;;;;;5059194;28;20465;-74
2024/01/06 09:47:55;;;;;;;3.07;2.43;;;6.30;99.90;;;;;;5069300;28;20449;-74
2024/01/06 09:50:21;;;;;;;3.90;2.80;;;6.20;99.90;;;;;;5063261;28;20499;-74
2024/01/06 09:52:56;;;;;;;4.27;2.73;;;6.20;99.90;;;;;;5070168;28;20450;-74
2024/01/06 09:55:26;;;;;;;9.50;6.67;;;6.30;99.90;;;;;;5053655;28;21012;-74
2024/01/06 09:57:55;;;;;;;9.17;5.57;;;6.30;99.90;;;;;;5051778;28;20456;-74
2024/01/06 10:00:21;;;;;;;5.47;4.20;;;6.30;99.90;;;;;;5051384;28;20454;-74
2024/01/06 10:02:51;;;;;;;6.30;4.83;;;6.30;99.90;;;;;;5067989;28;20470;-74
2024/01/06 10:05:17;;;;;;;15.00;8.60;;;6.40;99.90;;;;;;5073821;28;20501;-74
2024/01/06 10:07:44;;;;;;;9.00;6.77;;;6.40;99.90;;;;;;5069361;28;20476;-74
2024/01/06 10:10:11;;;;;;;7.70;5.40;;;6.40;99.90;;;;;;5068832;28;20971;-74
2024/01/06 10:12:41;;;;;;;6.30;5.43;;;6.40;99.90;;;;;;5063340;28;20466;-75
2024/01/06 10:15:08;;;;;;;8.67;5.17;;;6.40;99.90;;;;;;5069399;28;20449;-74
2024/01/06 10:17:38;;;;;;;7.00;5.57;;;6.50;99.90;;;;;;5070009;28;20457;-74
2024/01/06 10:20:10;;;;;;;6.03;4.70;;;6.50;99.90;;;;;;5080496;28;20872;-74
2024/01/06 10:22:37;;;;;;;19.03;9.50;;;6.50;99.90;;;;;;5061602;28;20478;-75
2024/01/06 10:25:05;;;;;;;13.30;8.20;;;6.50;99.90;;;;;;5067000;28;20476;-74
2024/01/06 10:27:35;;;;;;;18.20;8.80;;;6.50;99.90;;;;;;5056946;28;20435;-74
2024/01/06 10:30:01;;;;;;;13.53;7.70;;;6.60;99.90;;;;;;5056355;28;20474;-74
2024/01/06 10:32:30;;;;;;;17.97;8.73;;;6.60;99.90;;;;;;5067916;28;20519;-74
2024/01/06 10:34:56;;;;;;;14.27;7.97;;;6.60;99.90;;;;;;5068615;28;20457;-74
2024/01/06 10:37:21;;;;;;;9.43;6.10;;;6.60;99.90;;;;;;5067141;28;20971;-75
2024/01/06 10:39:47;;;;;;;6.87;5.57;;;6.60;99.90;;;;;;5059591;28;20492;-75
2024/01/06 10:42:14;;;;;;;7.90;6.10;;;6.70;99.90;;;;;;5067306;28;20276;-75
2024/01/06 10:44:42;;;;;;;8.27;5.33;;;6.70;99.90;;;;;;5077167;28;20246;-74
2024/01/06 10:47:08;;;;;;;6.10;4.97;;;6.70;99.90;;;;;;5081071;28;20496;-75
2024/01/06 10:49:35;;;;;;;6.80;5.10;;;6.70;99.90;;;;;;5077377;28;20451;-74
2024/01/06 10:52:05;;;;;;;5.20;3.77;;;6.70;99.90;;;;;;5060128;28;20803;-74
2024/01/06 10:54:33;;;;;;;4.23;3.70;;;6.70;99.90;;;;;;5080156;28;20836;-75
2024/01/06 10:57:00;;;;;;;5.00;4.00;;;6.80;99.90;;;;;;5061868;28;20462;-74
2024/01/06 10:59:28;;;;;;;6.97;4.50;;;6.80;99.90;;;;;;5058857;28;20461;-75
2024/01/06 11:01:54;;;;;;;5.70;3.80;;;6.80;99.90;;;;;;5065493;28;20466;-74
2024/01/06 11:04:22;;;;;;;6.30;3.40;;;6.80;99.90;;;;;;5073518;28;20473;-74
2024/01/06 11:06:48;;;;;;;6.30;4.40;;;6.80;99.90;;;;;;5050241;28;20521;-75
2024/01/06 11:09:21;;;;;;;4.20;3.67;;;6.80;99.90;;;;;;5064077;28;20461;-74
2024/01/06 11:11:48;;;;;;;3.43;2.77;;;6.80;99.90;;;;;;5065401;28;20462;-74
2024/01/06 11:14:25;;;;;;;4.07;3.37;;;6.90;99.90;;;;;;5067500;28;20462;-74
2024/01/06 11:16:51;;;;;;;6.20;4.17;;;6.90;99.90;;;;;;5056653;28;20462;-74
2024/01/06 11:19:35;;;;;;;3.37;2.90;;;6.90;99.90;;;;;;5066942;28;20450;-74
2024/01/06 11:22:22;;;;;;;3.70;2.97;;;6.90;99.90;;;;;;5066818;28;21019;-74
2024/01/06 11:24:49;;;;;;;4.53;3.30;;;6.90;99.90;;;;;;5064458;28;20533;-74
2024/01/06 11:27:28;;;;;;;4.13;3.57;;;6.90;99.90;;;;;;5067688;28;20446;-75
2024/01/06 11:29:56;;;;;;;5.47;3.60;;;6.90;99.90;;;;;;5063044;28;20449;-74
2024/01/06 11:32:35;;;;;;;5.43;3.70;;;6.80;99.90;;;;;;5049499;28;20454;-75
2024/01/06 11:35:12;;;;;;;5.27;3.10;;;6.90;99.90;;;;;;5059611;28;20447;-74
2024/01/06 11:37:38;;;;;;;3.40;2.53;;;6.90;99.90;;;;;;5066089;28;20468;-74
2024/01/06 11:40:08;;;;;;;4.23;2.70;;;6.90;99.90;;;;;;5061431;28;20454;-74
2024/01/06 11:42:35;;;;;;;2.83;2.53;;;7.00;99.90;;;;;;5062025;28;20232;-74
2024/01/06 11:45:08;;;;;;;3.83;3.00;;;7.00;99.90;;;;;;5065195;28;20530;-74
2024/01/06 11:47:34;;;;;;;4.10;3.33;;;7.00;99.90;;;;;;5076721;28;20460;-75
2024/01/06 11:50:04;;;;;;;5.73;3.83;;;7.00;99.90;;;;;;5054325;28;20459;-74
2024/01/06 11:52:34;;;;;;;3.10;2.70;;;7.00;99.90;;;;;;5066651;28;20528;-74
2024/01/06 11:55:00;;;;;;;3.80;3.37;;;7.00;99.90;;;;;;5068219;28;20604;-74
2024/01/06 11:57:27;;;;;;;4.70;3.83;;;7.00;99.90;;;;;;5058357;28;20512;-75
2024/01/06 11:59:53;;;;;;;4.00;3.57;;;7.00;99.90;;;;;;5061547;28;20498;-74
2024/01/06 12:02:22;;;;;;;4.53;3.50;;;7.00;99.90;;;;;;5066032;28;21015;-74
2024/01/06 12:04:51;;;;;;;4.97;3.27;;;7.10;99.90;;;;;;5068415;28;20462;-73
2024/01/06 12:07:19;;;;;;;8.03;5.10;;;7.10;99.90;;;;;;5045112;28;20464;-74
2024/01/06 12:09:46;;;;;;;14.13;9.30;;;7.10;99.90;;;;;;5074540;28;20474;-74
2024/01/06 12:12:15;;;;;;;40.37;20.07;;;7.10;99.90;;;;;;5065843;28;20450;-74
2024/01/06 12:14:46;;;;;;;73.37;34.40;;;7.10;99.90;;;;;;5068173;28;20504;-75
2024/01/06 12:17:13;;;;;;;63.97;33.23;;;7.10;99.90;;;;;;5064869;28;20446;-74
2024/01/06 12:19:41;;;;;;;50.97;26.33;;;7.20;99.90;;;;;;5059565;28;20458;-75
2024/01/06 12:22:09;;;;;;;47.40;24.20;;;7.20;99.90;;;;;;5049492;28;20569;-74
2024/01/06 12:24:36;;;;;;;38.93;21.03;;;7.20;99.90;;;;;;5056097;28;20486;-74
2024/01/06 12:27:01;;;;;;;30.50;17.47;;;7.30;99.90;;;;;;5070059;28;20485;-74
2024/01/06 12:29:31;;;;;;;30.63;13.83;;;7.30;99.90;;;;;;5055387;28;20887;-74
2024/01/06 12:31:59;;;;;;;15.83;8.53;;;7.30;99.90;;;;;;5061762;28;20219;-74
2024/01/06 12:34:26;;;;;;;13.77;8.87;;;7.30;99.90;;;;;;5059268;28;20569;-75
2024/01/06 12:36:55;;;;;;;8.33;5.90;;;7.40;99.90;;;;;;5063639;28;20468;-74
2024/01/06 12:39:22;;;;;;;8.70;5.50;;;7.40;99.90;;;;;;5059138;28;20623;-74
2024/01/06 12:41:50;;;;;;;4.83;3.80;;;7.40;99.90;;;;;;5061499;28;20470;-75
2024/01/06 12:44:16;;;;;;;5.30;3.70;;;7.40;99.90;;;;;;5059207;28;20454;-74
2024/01/06 12:46:42;;;;;;;3.87;2.43;;;7.40;99.90;;;;;;5078546;28;20449;-74
2024/01/06 12:49:07;;;;;;;3.73;2.90;;;7.40;99.90;;;;;;5055130;28;20629;-74
2024/01/06 12:51:33;;;;;;;3.23;2.57;;;7.40;99.90;;;;;;5044110;28;20697;-75